Nearby METAR Reports

 

KSFO - San Francisco, California, USA
Distance from station: NNW 8km
Updated: Fri, 15-Dec-2017 2:56pm PST
Haze, Mostly cloudy
Haze, Mostly cloudy
 Wind from NNE
Wind: NNE 3 mph , 6 km/h
Temperature: 55°F , 13°C
Dew Point: 48°F , 9°C
Humidity: 77%
Barometer: 30.06 inHg , 1017.9 hPa
Summary: Haze
Clouds: Mostly cloudy
Visibility: 6 miles , 10 km
Cloud details: Mostly cloudy 20000 ft
2017/12/15 22:56 KSFO 152256Z 03003KT 6SM HZ BKN200 13/09 A3006 RMK AO2 SLP180 T01330089
KSQL - San Carlos Airpo, California, USA
Distance from station: ESE 8km
Updated: Fri, 15-Dec-2017 2:47pm PST
Haze, Mostly cloudy
Haze, Mostly cloudy
 Wind from varies
Wind: varies 3 mph , 6 km/h
Temperature: 57°F , 14°C
Dew Point: 45°F , 7°C
Humidity: 63%
Barometer: 30.06 inHg , 1017.9 hPa
Summary: Haze
Clouds: Mostly cloudy
Visibility: 5 miles , 8 km
Cloud details: Mostly cloudy 20000 ft
2017/12/15 22:47 KSQL 152247Z VRB03KT 5SM HZ BKN200 14/07 A3006
 
KHAF - Half Moon Bay, California, USA
Distance from station: WSW 15km
Updated: Fri, 15-Dec-2017 3:15pm PST
Haze, Clear
Haze, Clear
 Wind from NNW
Wind: NNW 12 mph , 19 km/h
Temperature: 57°F , 14°C
Dew Point: 48°F , 9°C
Humidity: 72%
Barometer: 30.04 inHg , 1017.3 hPa
Summary: Haze
Clouds: Clear
Visibility: 3 miles , 5 km
2017/12/15 23:15 KHAF 152315Z AUTO 33010KT 3SM HZ CLR 14/09 A3004 RMK AO2
KOAK - Oakland, California, USA
Distance from station: NNE 21km
Updated: Fri, 15-Dec-2017 2:53pm PST
Haze, Overcast
Haze, Overcast
 Wind from WNW
Wind: WNW 3 mph , 6 km/h
Temperature: 57°F , 14°C
Dew Point: 46°F , 8°C
Humidity: 67%
Barometer: 30.07 inHg , 1018.3 hPa
Summary: Haze
Clouds: Overcast
Visibility: 5 miles , 8 km
Cloud details: Partly cloudy 4500 ft
Overcast 20000 ft
2017/12/15 22:53 KOAK 152253Z 30003KT 5SM HZ SCT045 OVC200 14/08 A3007 RMK AO2 SLP182 T01390083
 
KPAO - Palo Alto, California, USA
Distance from station: ESE 21km
Updated: Fri, 15-Dec-2017 2:47pm PST
Haze, Mostly cloudy
Haze, Mostly cloudy
 Wind from NNW
Wind: NNW 6 mph , 9 km/h
Temperature: 57°F , 14°C
Dew Point: 45°F , 7°C
Humidity: 63%
Barometer: 30.07 inHg , 1018.3 hPa
Summary: Haze
Clouds: Mostly cloudy
Visibility: 6 miles , 10 km
Cloud details: Mostly cloudy 18000 ft
2017/12/15 22:47 KPAO 152247Z 34005KT 6SM HZ BKN180 14/07 A3007
KHWD - Hayward, California, USA
Distance from station: NE 23km
Updated: Fri, 15-Dec-2017 2:54pm PST
Haze, Clear
Haze, Clear
 Wind from WNW
Wind: WNW 3 mph , 6 km/h
Temperature: 57°F , 14°C
Dew Point: 41°F , 5°C
Humidity: 55%
Barometer: 30.06 inHg , 1017.9 hPa
Summary: Haze
Clouds: Clear
Visibility: 3 miles , 5 km
2017/12/15 22:54 KHWD 152254Z 29003KT 3SM HZ CLR 14/05 A3006 RMK AO2 SLP190 T01440050
 
KNUQ - Moffett Nas/Mtn, California, USA
Distance from station: ESE 30km
Updated: Fri, 15-Dec-2017 2:56pm PST
Haze, Clear
Haze, Clear
 Wind from NNE
Wind: NNE 3 mph , 6 km/h
Temperature: 61°F , 16°C
Dew Point: 39°F , 4°C
Humidity: 45%
Barometer: 30.07 inHg , 1018.3 hPa
Summary: Haze
Clouds: Clear
Visibility: 6 miles , 10 km
2017/12/15 22:56 KNUQ 152256Z 02003KT 6SM HZ CLR 16/04 A3007 RMK AO2 SLP184 T01560044
KSJC - San Jose, California, USA
Distance from station: ESE 42km
Updated: Fri, 15-Dec-2017 2:53pm PST
Overcast
Overcast
 Wind from calm
Wind: Calm
Temperature: 63°F , 17°C
Dew Point: 36°F , 2°C
Humidity: 37%
Barometer: 30.06 inHg , 1017.9 hPa
Clouds: Overcast
Visibility: 7 miles , 11 km
Cloud details: Few Clouds 100 ft
Mostly cloudy 7000 ft
Overcast 8500 ft
2017/12/15 22:53 KSJC 152253Z 00000KT 7SM FEW001 BKN070 OVC085 17/02 A3006 RMK AO2 SLP179 FU FEW001 FU BKN070 FU OVC085 T01670022
 
KLVK - Livermore, California, USA
Distance from station: ENE 49km
Updated: Fri, 15-Dec-2017 2:53pm PST
Haze, Clear
Haze, Clear
 Wind from calm
Wind: Calm
Temperature: 61°F , 16°C
Dew Point: 39°F , 4°C
Humidity: 45%
Barometer: 30.05 inHg , 1017.6 hPa
Summary: Haze
Clouds: Clear
Visibility: 4 miles , 6 km
2017/12/15 22:53 KLVK 152253Z 00000KT 4SM HZ CLR 16/04 A3005 RMK AO2 SLP175 T01610039
KRHV - San Jose/Reid, California, USA
Distance from station: ESE 53km
Updated: Fri, 15-Dec-2017 2:53pm PST
Mostly cloudy
Mostly cloudy
 Wind from calm
Wind: Calm
Temperature: 63°F , 17°C
Dew Point: 39°F , 4°C
Humidity: 42%
Barometer: 30.04 inHg , 1017.3 hPa
Clouds: Mostly cloudy
Visibility: 10 miles , 16 km
Cloud details: Partly cloudy 5000 ft
Mostly cloudy 7000 ft
2017/12/15 22:53 KRHV 152253Z 00000KT 10SM SCT050 BKN070 17/04 A3004
 
KCCR - Concord, California, USA
Distance from station: NNE 56km
Updated: Fri, 15-Dec-2017 2:53pm PST
Haze, Clear
Haze, Clear
 Wind from N
Wind: N 7 mph , 11 km/h
Temperature: 59°F , 15°C
Dew Point: 46°F , 8°C
Humidity: 63%
Barometer: 30.07 inHg , 1018.3 hPa
Summary: Haze
Clouds: Clear
Visibility: 6 miles , 10 km
2017/12/15 22:53 KCCR 152253Z 35006KT 6SM HZ CLR 15/08 A3007 RMK AO2 SLP168 T01500078
KDVO - Novato/Gnoss Fld, California, USA
Distance from station: NNW 70km
Updated: Fri, 15-Dec-2017 2:55pm PST
Clear
Clear
 Wind from calm
Wind: Calm
Temperature: 61°F , 16°C
Dew Point: 41°F , 5°C
Humidity: 48%
Barometer: 30.08 inHg , 1018.6 hPa
Clouds: Clear
Visibility: 7 miles , 11 km
2017/12/15 22:55 KDVO 152255Z AUTO 00000KT 7SM CLR 16/05 A3008 RMK AO2
 
KAPC - Napa, California, USA
Distance from station: N 73km
Updated: Fri, 15-Dec-2017 2:54pm PST
Clear
Clear
 Wind from WSW
Wind: WSW 3 mph , 6 km/h
Temperature: 59°F , 15°C
Dew Point: 43°F , 6°C
Humidity: 55%
Barometer: 30.07 inHg , 1018.3 hPa
Clouds: Clear
Visibility: 9 miles , 14 km
2017/12/15 22:54 KAPC 152254Z 24003KT 9SM CLR 15/06 A3007 RMK AO2 SLP174 T01500056 $